Minneapolis, Minnesota
Traffic Map
Current Weather Conditions
Minneapolis, Minnesota
Overcast Haze
Overcast
14°
Feels Like: 14°
Wind Chill: 14° Ceiling: 400
Heat Index: 14° Visibility: 1.7mi
Dew Point: 14° Wind: 10mph
Humidity: 100% Direction: 120° (ESE)
Pressure: 29.66in Gusts: 0mph
Raw Report DataKMSP 251053Z 12009KT 1 3/4SM BR OVC004 14/14 A2966 RMK AO2 SLP044 T01390139
Traffic Incident Summary
Active as of:
Severity:
Category:
InformationThere was an issue retrieving the traffic information for this location. Please try a different location or try again shortly.
Advertisements
Track Severe Weather on mobile